Time;durP1;ratioP1;P1;durP2;ratioP2;P2;SDS_P1;SDS_P2;PMS_P1;PMS_P2;Temp;Humidity;BMP_temperature;BMP_pressure;BME280_temperature;BME280_humidity;BME280_pressure;Samples;Min_cycle;Max_cycle;Signal;HPM_P1;HPM_P2
2022/04/01 07:58:50;;;;;;;6.97;5.55;;;;;;;1.60;82.01;100659.38;5319746;27;1872385;-66
2022/04/01 08:01:22;;;;;;;7.30;4.53;;;;;;;1.67;81.38;100651.91;5365393;27;20031;-67
2022/04/01 08:03:53;;;;;;;5.75;4.40;;;;;;;1.69;81.21;100661.53;5379831;27;20023;-67
2022/04/01 08:06:25;;;;;;;5.00;4.47;;;;;;;1.68;81.47;100667.22;5386057;27;20080;-70
2022/04/01 08:08:58;;;;;;;5.40;4.80;;;;;;;1.90;81.20;100672.97;5386984;27;20026;-67
2022/04/01 08:11:29;;;;;;;4.57;4.18;;;;;;;1.94;82.13;100664.06;5386293;27;20015;-66
2022/04/01 08:14:01;;;;;;;5.97;4.18;;;;;;;1.76;80.47;100677.81;5385840;27;20462;-69
2022/04/01 08:16:32;;;;;;;5.45;4.28;;;;;;;1.68;80.40;100672.69;5375540;27;20026;-69
2022/04/01 08:19:04;;;;;;;4.28;3.88;;;;;;;1.69;80.10;100688.88;5353489;27;20478;-70
2022/04/01 08:21:36;;;;;;;4.53;4.05;;;;;;;1.96;82.82;100683.78;5364199;27;20023;-68
2022/04/01 08:24:07;;;;;;;6.57;4.50;;;;;;;1.86;81.12;100691.72;5364793;27;20135;-67
2022/04/01 08:26:39;;;;;;;6.45;4.72;;;;;;;1.91;80.03;100691.84;5363739;27;20027;-68
2022/04/01 08:29:10;;;;;;;7.57;5.63;;;;;;;1.93;80.58;100688.91;5364460;27;20030;-68
2022/04/01 08:31:41;;;;;;;4.45;4.05;;;;;;;2.03;80.72;100697.34;5364175;27;20031;-69
2022/04/01 08:34:13;;;;;;;4.88;4.20;;;;;;;2.06;80.30;100709.72;5362903;27;20080;-69
2022/04/01 08:36:44;;;;;;;7.40;5.35;;;;;;;1.93;79.67;100710.78;5363345;27;20030;-68
2022/04/01 08:39:15;;;;;;;10.80;8.13;;;;;;;2.03;80.02;100716.50;5364533;27;20019;-68
2022/04/01 08:41:47;;;;;;;15.65;11.07;;;;;;;1.92;80.42;100712.69;5362957;27;20030;-68
2022/04/01 08:44:18;;;;;;;5.03;4.40;;;;;;;1.88;80.39;100729.78;5364494;27;20083;-69
2022/04/01 08:46:50;;;;;;;4.82;4.43;;;;;;;2.02;79.65;100735.88;5364126;27;20029;-69
2022/04/01 08:49:21;;;;;;;4.30;3.65;;;;;;;2.11;79.69;100738.03;5363368;27;20027;-67
2022/04/01 08:51:53;;;;;;;13.55;9.82;;;;;;;2.19;78.94;100739.59;5362503;27;20023;-68
2022/04/01 08:54:24;;;;;;;4.03;3.55;;;;;;;2.10;78.54;100743.75;5342487;28;20023;-68
2022/04/01 08:56:55;;;;;;;49.22;36.67;;;;;;;2.26;77.31;100736.75;5341266;27;20487;-67
2022/04/01 08:59:30;;;;;;;5.88;3.40;;;;;;;2.23;77.67;100745.44;5342635;27;20016;-67
2022/04/01 09:02:05;;;;;;;3.60;3.05;;;;;;;2.13;75.91;100752.31;5346860;27;20023;-67
2022/04/01 09:04:37;;;;;;;4.88;3.00;;;;;;;2.05;76.86;100757.31;5354256;27;20038;-67
2022/04/01 09:07:11;;;;;;;5.40;3.40;;;;;;;2.17;76.65;100761.72;5343521;27;20019;-68
2022/04/01 09:09:43;;;;;;;4.47;3.28;;;;;;;2.21;75.62;100758.50;5344078;27;20116;-68
2022/04/01 09:12:17;;;;;;;3.28;2.97;;;;;;;2.38;76.74;100759.47;5333514;27;20120;-68
2022/04/01 09:14:52;;;;;;;5.28;3.63;;;;;;;2.22;75.83;100766.47;5348175;27;20440;-67
2022/04/01 09:17:39;;;;;;;4.38;3.72;;;;;;;2.33;77.54;100771.13;5348262;27;20030;-67
2022/04/01 09:20:11;;;;;;;7.07;6.38;;;;;;;2.34;76.95;100771.97;5327413;28;20032;-66
2022/04/01 09:22:43;;;;;;;3.58;3.28;;;;;;;2.19;76.15;100769.69;5326878;28;20053;-67
2022/04/01 09:25:18;;;;;;;4.70;3.45;;;;;;;2.33;76.80;100778.53;5338800;27;20441;-67
2022/04/01 09:27:52;;;;;;;5.97;3.35;;;;;;;2.34;77.36;100778.25;5331983;27;20435;-67
2022/04/01 09:30:26;;;;;;;25.67;20.92;;;;;;;2.52;77.21;100784.72;5326862;28;20030;-67
2022/04/01 09:33:01;;;;;;;3.85;3.45;;;;;;;2.40;75.08;100784.69;5327592;27;20024;-67
2022/04/01 09:35:33;;;;;;;4.65;3.83;;;;;;;2.29;76.96;100788.25;5327526;28;20156;-67
2022/04/01 09:38:04;;;;;;;5.75;3.60;;;;;;;2.42;76.36;100789.94;5325962;27;20053;-67
2022/04/01 09:40:36;;;;;;;4.43;3.55;;;;;;;2.54;77.90;100783.41;5327551;28;20080;-68
2022/04/01 09:43:08;;;;;;;4.53;3.83;;;;;;;2.45;77.04;100797.66;5334580;27;20080;-66
2022/04/01 09:46:22;;;;;;;6.38;3.40;;;;;;;2.47;76.33;100799.09;5335140;27;20019;-67
2022/04/01 09:48:43;;;;;;;3.58;3.22;;;;;;;2.78;75.92;100794.34;5330907;27;20059;-68
2022/04/01 09:51:14;;;;;;;3.78;3.00;;;;;;;2.72;75.46;100806.25;5347873;27;20505;-68
2022/04/01 09:53:53;;;;;;;11.05;9.35;;;;;;;2.79;76.72;100790.53;5348206;27;20106;-68
2022/04/01 09:56:47;;;;;;;4.35;3.30;;;;;;;2.92;75.16;100801.25;5348131;27;20068;-67
2022/04/01 09:59:18;;;;;;;5.00;3.53;;;;;;;2.90;74.19;100795.16;5335862;27;20433;-68
2022/04/01 10:01:52;;;;;;;3.78;2.65;;;;;;;2.95;75.34;100798.03;5343690;27;20038;-68
2022/04/01 10:04:23;;;;;;;3.45;2.80;;;;;;;2.80;74.47;100798.50;5348240;27;20023;-68
2022/04/01 10:06:55;;;;;;;3.35;2.70;;;;;;;2.83;73.89;100797.19;5347387;27;20037;-68
2022/04/01 10:09:28;;;;;;;4.85;2.45;;;;;;;2.80;74.90;100803.16;5347820;27;20023;-68
2022/04/01 10:12:03;;;;;;;3.83;2.90;;;;;;;2.88;75.81;100799.22;5347072;27;20381;-67
2022/04/01 10:14:38;;;;;;;4.07;2.63;;;;;;;2.89;74.86;100789.91;5348241;27;20034;-66
2022/04/01 10:17:11;;;;;;;5.45;2.72;;;;;;;2.92;75.37;100805.91;5337649;27;20046;-64
2022/04/01 10:19:47;;;;;;;4.85;3.50;;;;;;;2.88;74.48;100818.41;5333700;27;20019;-66
2022/04/01 10:22:18;;;;;;;6.68;4.85;;;;;;;2.97;74.48;100808.75;5357432;27;20034;-67
2022/04/01 10:25:04;;;;;;;4.07;2.97;;;;;;;2.82;73.43;100806.50;5348178;27;20106;-66
2022/04/01 10:27:40;;;;;;;3.33;2.95;;;;;;;2.91;75.39;100810.50;5337229;27;20019;-66
2022/04/01 10:30:16;;;;;;;3.88;2.60;;;;;;;3.02;74.72;100812.44;5326322;28;20474;-65
2022/04/01 10:32:48;;;;;;;;;;;;;;;3.25;75.27;100816.19;5333413;27;20015;-67
2022/04/01 10:35:37;;;;;;;4.72;2.60;;;;;;;3.17;74.45;100808.34;5326717;27;19915;-66
2022/04/01 10:38:08;;;;;;;4.05;2.38;;;;;;;3.00;73.51;100809.09;5346896;27;20045;-66
2022/04/01 10:40:42;;;;;;;4.75;2.60;;;;;;;3.14;75.03;100817.88;5346589;27;20102;-65
2022/04/01 10:43:16;;;;;;;4.05;3.65;;;;;;;3.04;73.09;100814.91;5341880;27;20458;-65
2022/04/01 10:46:05;;;;;;;4.78;4.03;;;;;;;3.06;74.54;100812.75;5325689;28;20024;-66
2022/04/01 10:51:38;;;;;;;6.30;4.07;;;;;;;3.04;74.33;100826.72;5341434;27;20439;-65
2022/04/01 10:54:10;;;;;;;5.07;3.10;;;;;;;3.18;74.25;100819.06;5340480;27;20489;-66
2022/04/01 10:57:06;;;;;;;3.15;2.72;;;;;;;3.16;73.01;100817.66;5346681;27;20031;-65
2022/04/01 10:59:45;;;;;;;4.05;2.88;;;;;;;3.22;73.45;100824.88;5347129;27;20035;-65
2022/04/01 11:02:22;;;;;;;21.20;17.23;;;;;;;3.22;72.97;100835.84;5324849;28;20031;-66
2022/04/01 11:04:53;;;;;;;8.38;7.00;;;;;;;3.21;72.77;100835.03;5347570;27;20103;-65
2022/04/01 11:07:24;;;;;;;5.60;3.42;;;;;;;3.30;72.93;100837.38;5339291;27;20445;-64
2022/04/01 11:10:00;;;;;;;21.75;15.77;;;;;;;3.33;73.33;100842.41;5339264;27;20061;-66
2022/04/01 11:12:32;;;;;;;10.02;7.68;;;;;;;3.25;72.35;100840.88;5344909;27;20034;-66
2022/04/01 11:15:07;;;;;;;4.55;3.88;;;;;;;3.34;72.53;100836.66;5347042;27;20058;-66
2022/04/01 11:17:41;;;;;;;6.47;3.83;;;;;;;3.34;71.27;100841.31;5344205;27;20042;-65
2022/04/01 11:20:18;;;;;;;5.35;3.40;;;;;;;3.28;72.29;100840.38;5344719;27;20027;-65
2022/04/01 11:22:52;;;;;;;6.25;3.55;;;;;;;3.29;71.26;100847.53;5324699;28;20032;-65
2022/04/01 11:25:32;;;;;;;4.45;4.05;;;;;;;3.17;72.35;100850.31;5339513;27;20062;-65
2022/04/01 11:28:10;;;;;;;5.45;3.88;;;;;;;3.42;72.14;100844.50;5340363;27;20453;-65
2022/04/01 11:31:02;;;;;;;4.35;3.92;;;;;;;3.33;70.54;100851.47;5338037;27;20050;-65
2022/04/01 11:33:33;;;;;;;5.40;3.80;;;;;;;3.22;71.33;100846.81;5344431;27;20019;-65
2022/04/01 11:36:07;;;;;;;7.88;4.07;;;;;;;3.33;70.99;100864.34;5336574;27;20128;-65
2022/04/01 11:38:45;;;;;;;8.23;4.95;;;;;;;3.32;71.27;100851.69;5344457;27;20049;-65
2022/04/01 11:41:17;;;;;;;6.13;4.97;;;;;;;3.32;70.90;100858.00;5336319;27;20016;-65
2022/04/01 11:43:48;;;;;;;5.63;3.85;;;;;;;3.44;70.89;100858.00;5328614;27;20102;-66
2022/04/01 11:46:20;;;;;;;7.45;3.80;;;;;;;3.27;71.01;100857.88;5328264;27;20031;-66
2022/04/01 11:48:51;;;;;;;4.30;3.75;;;;;;;3.31;71.74;100856.34;5345002;27;20225;-66
2022/04/01 11:51:24;;;;;;;5.32;4.07;;;;;;;3.47;71.93;100852.84;5343734;27;20447;-66
2022/04/01 11:53:56;;;;;;;6.10;4.15;;;;;;;3.39;72.13;100857.88;5344529;27;20058;-66
2022/04/01 11:56:28;;;;;;;4.70;3.90;;;;;;;3.54;71.50;100857.38;5346039;28;20102;-67
2022/04/01 11:59:01;;;;;;;8.70;4.30;;;;;;;3.69;73.45;100855.75;5328372;28;20437;-65
2022/04/01 12:01:59;;;;;;;8.00;6.38;;;;;;;3.46;71.63;100856.66;5345739;28;20392;-67
2022/04/01 12:04:34;;;;;;;22.95;17.23;;;;;;;3.43;71.44;100857.16;5323021;28;20027;-66
2022/04/01 12:10:04;;;;;;;6.45;4.80;;;;;;;3.47;72.50;100869.28;5325030;28;20032;-66
2022/04/01 12:12:35;;;;;;;6.35;4.70;;;;;;;3.43;72.43;100870.88;5323749;28;20023;-66
2022/04/01 12:15:07;;;;;;;5.25;4.55;;;;;;;3.33;71.72;100872.56;5328741;28;20383;-66
2022/04/01 12:17:48;;;;;;;7.95;5.50;;;;;;;3.35;73.01;100864.91;5330881;28;20531;-66
2022/04/01 12:20:20;;;;;;;6.75;5.57;;;;;;;3.38;72.08;100862.53;5323888;28;20054;-66
2022/04/01 12:22:52;;;;;;;6.32;5.15;;;;;;;3.48;73.03;100870.16;5327857;28;22034;-65
2022/04/01 12:25:24;;;;;;;26.77;22.20;;;;;;;3.40;73.17;100874.09;5337949;28;20054;-67
2022/04/01 12:27:58;;;;;;;6.80;4.95;;;;;;;3.52;72.73;100881.47;5333520;28;20055;-66
2022/04/01 12:30:35;;;;;;;7.95;5.13;;;;;;;3.52;71.40;100878.72;5330012;27;20023;-71
2022/04/01 12:33:10;;;;;;;24.38;19.02;;;;;;;3.53;71.98;100894.94;5342729;27;20463;-72
2022/04/01 12:36:04;;;;;;;8.85;5.25;;;;;;;3.53;71.67;100889.44;5331223;28;20054;-70
2022/04/01 12:38:41;;;;;;;8.05;5.18;;;;;;;3.60;72.16;100886.56;5339519;27;20168;-72
2022/04/01 12:41:19;;;;;;;6.03;4.78;;;;;;;3.65;71.02;100894.88;5330276;28;20483;-71
2022/04/01 12:43:53;;;;;;;8.52;5.75;;;;;;;3.64;70.79;100895.97;5325480;28;20050;-71
2022/04/01 12:46:33;;;;;;;9.05;7.35;;;;;;;3.76;71.64;100893.19;5329825;27;20479;-65
2022/04/01 12:49:13;;;;;;;11.25;9.25;;;;;;;3.75;70.06;100897.00;5330461;27;20031;-65
2022/04/01 12:52:01;;;;;;;8.07;5.40;;;;;;;3.82;69.78;100909.53;5344266;27;20106;-66
2022/04/01 12:54:37;;;;;;;8.45;4.43;;;;;;;4.09;75.00;100906.19;5348902;27;20051;-68
2022/04/01 12:57:11;;;;;;;8.15;4.55;;;;;;;4.03;73.38;100901.69;5349291;27;20104;-65
2022/04/01 12:59:45;;;;;;;8.65;4.80;;;;;;;4.02;70.16;100902.78;5340809;27;20388;-65
2022/04/01 13:02:19;;;;;;;6.47;5.88;;;;;;;3.92;70.79;100906.16;5326724;28;20099;-65
2022/04/01 13:04:53;;;;;;;6.40;5.30;;;;;;;3.76;70.12;100913.25;5327879;27;20027;-65
2022/04/01 13:07:32;;;;;;;7.55;5.38;;;;;;;3.67;71.61;100912.78;5343754;27;20138;-67
2022/04/01 13:10:06;;;;;;;55.22;44.60;;;;;;;3.63;72.43;100918.97;5327228;27;20090;-67
2022/04/01 13:12:40;;;;;;;40.78;30.98;;;;;;;3.78;71.22;100919.28;5327967;28;20031;-67
2022/04/01 13:15:23;;;;;;;9.93;6.75;;;;;;;3.83;71.75;100915.84;5327077;28;20015;-67
2022/04/01 13:17:57;;;;;;;5.90;5.30;;;;;;;3.78;70.76;100918.47;5327489;28;20031;-67
2022/04/01 13:20:31;;;;;;;7.32;5.60;;;;;;;3.86;70.36;100916.19;5327849;27;20032;-67
2022/04/01 13:23:03;;;;;;;7.30;6.57;;;;;;;3.79;70.17;100920.16;5329915;27;20020;-68
2022/04/01 13:25:35;;;;;;;7.38;6.68;;;;;;;3.83;70.55;100924.06;5334954;27;20032;-67
2022/04/01 13:28:11;;;;;;;7.68;5.57;;;;;;;3.69;69.26;100931.75;5327573;28;20034;-66
2022/04/01 13:30:42;;;;;;;6.20;5.60;;;;;;;3.74;68.99;100933.78;5337028;27;20104;-65
2022/04/01 13:33:15;;;;;;;6.72;6.07;;;;;;;3.63;68.98;100935.44;5335036;27;20019;-66
2022/04/01 13:35:46;;;;;;;18.55;14.05;;;;;;;3.65;69.36;100942.34;5348550;27;20058;-67
2022/04/01 13:38:18;;;;;;;9.20;8.30;;;;;;;3.66;70.93;100940.47;5349064;27;20066;-67
2022/04/01 13:40:49;;;;;;;6.68;6.05;;;;;;;3.73;70.84;100938.38;5352928;27;20050;-68
2022/04/01 13:43:20;;;;;;;6.78;6.07;;;;;;;3.76;70.48;100932.44;5327255;28;20065;-68
2022/04/01 13:45:52;;;;;;;8.07;6.40;;;;;;;3.80;71.75;100933.59;5326868;28;20016;-66
2022/04/01 13:48:24;;;;;;;10.85;8.43;;;;;;;3.84;71.78;100940.28;5326586;28;20027;-67
2022/04/01 13:50:56;;;;;;;13.48;11.38;;;;;;;3.91;71.40;100934.66;5335276;27;20019;-66
2022/04/01 13:53:30;;;;;;;10.98;8.77;;;;;;;3.77;71.32;100934.09;5333030;27;20039;-67
2022/04/01 13:56:01;;;;;;;11.52;8.80;;;;;;;3.89;71.36;100937.66;5333564;27;20093;-67
2022/04/01 13:58:33;;;;;;;9.68;8.07;;;;;;;4.18;71.97;100936.84;5324965;27;20040;-67
2022/04/01 14:01:06;;;;;;;19.73;17.63;;;;;;;4.19;71.75;100936.56;5326957;27;20027;-67
2022/04/01 14:03:44;;;;;;;12.93;10.45;;;;;;;4.32;70.71;100927.22;5347542;27;20472;-66
2022/04/01 14:06:15;;;;;;;6.97;6.28;;;;;;;4.19;69.84;100933.84;5345341;27;20085;-66
2022/04/01 14:08:47;;;;;;;7.65;6.85;;;;;;;4.26;70.02;100937.28;5342444;27;20028;-67
2022/04/01 14:11:19;;;;;;;7.43;6.68;;;;;;;4.36;68.68;100937.47;5326100;28;20019;-66
2022/04/01 14:13:50;;;;;;;6.85;6.13;;;;;;;4.69;71.39;100941.34;5333844;27;20027;-65
2022/04/01 14:16:21;;;;;;;6.60;5.97;;;;;;;4.51;68.02;100939.66;5333010;27;20118;-67
2022/04/01 14:18:53;;;;;;;7.93;6.28;;;;;;;4.39;66.82;100940.81;5325542;28;20528;-67
2022/04/01 14:21:25;;;;;;;6.90;6.20;;;;;;;4.56;68.45;100955.41;5326155;27;20107;-68
2022/04/01 14:23:56;;;;;;;10.65;6.32;;;;;;;4.32;67.99;100951.91;5344022;27;20027;-66
2022/04/01 14:26:31;;;;;;;7.97;6.20;;;;;;;4.43;68.74;100959.28;5346929;27;20023;-67
2022/04/01 14:31:58;;;;;;;11.35;8.02;;;;;;;4.49;69.34;100949.22;5332695;27;20031;-68
2022/04/01 14:34:36;;;;;;;7.28;6.57;;;;;;;4.48;67.90;100950.31;5344661;27;20043;-66
2022/04/01 14:37:09;;;;;;;7.10;6.40;;;;;;;4.39;68.38;100954.53;5347614;27;20468;-68
2022/04/01 14:39:41;;;;;;;8.75;6.38;;;;;;;4.41;67.22;100957.88;5346374;27;20090;-68
2022/04/01 14:42:12;;;;;;;10.02;9.02;;;;;;;4.60;67.66;100956.56;5342636;27;20106;-67
2022/04/01 14:44:43;;;;;;;7.03;6.05;;;;;;;4.38;66.42;100952.88;5332657;27;20024;-67
2022/04/01 14:47:15;;;;;;;6.88;5.72;;;;;;;4.47;66.25;100952.22;5325962;27;20107;-67
2022/04/01 14:49:46;;;;;;;7.35;6.20;;;;;;;4.58;67.38;100959.56;5336230;27;20029;-69
2022/04/01 14:52:17;;;;;;;6.18;5.57;;;;;;;4.33;65.94;100959.94;5357122;27;20030;-69
2022/04/01 14:54:50;;;;;;;7.78;6.97;;;;;;;4.29;66.24;100958.75;5341447;27;20035;-67
2022/04/01 14:57:22;;;;;;;7.88;6.43;;;;;;;4.37;64.74;100957.50;5335474;27;20100;-68
2022/04/01 14:59:56;;;;;;;6.90;6.18;;;;;;;4.34;65.21;100961.59;5343669;27;20098;-68
2022/04/01 15:02:27;;;;;;;8.30;7.45;;;;;;;4.47;66.24;100970.59;5326289;27;20023;-67
2022/04/01 15:04:58;;;;;;;7.95;6.03;;;;;;;4.52;64.97;100962.47;5331135;27;20027;-66
2022/04/01 15:07:30;;;;;;;6.47;5.78;;;;;;;4.53;65.23;100969.63;5338344;27;20024;-66
2022/04/01 15:10:01;;;;;;;54.47;35.83;;;;;;;4.52;65.70;100968.78;5345646;27;20027;-67
2022/04/01 15:12:32;;;;;;;6.38;5.78;;;;;;;4.55;65.32;100971.06;5346345;27;20031;-66
2022/04/01 15:15:05;;;;;;;7.45;4.93;;;;;;;4.55;63.39;100979.31;5344905;27;20039;-67
2022/04/01 15:17:39;;;;;;;6.28;4.95;;;;;;;4.45;62.81;100984.59;5336170;27;20110;-67
2022/04/01 15:20:13;;;;;;;7.07;4.80;;;;;;;4.52;63.01;100985.25;5325737;27;20051;-67
2022/04/01 15:22:46;;;;;;;8.63;4.93;;;;;;;4.41;62.52;100977.91;5326648;27;20344;-67
2022/04/01 15:25:17;;;;;;;12.40;8.20;;;;;;;4.73;64.35;101002.97;5342371;27;20465;-68
2022/04/01 15:27:49;;;;;;;5.93;5.07;;;;;;;4.59;62.20;100998.84;5324969;28;20031;-66
2022/04/01 15:30:20;;;;;;;5.18;4.57;;;;;;;4.88;62.47;100993.31;5333815;27;20027;-68
2022/04/01 15:32:52;;;;;;;6.85;4.55;;;;;;;4.82;62.37;100994.31;5346326;27;20019;-68
2022/04/01 15:35:23;;;;;;;5.65;4.60;;;;;;;5.06;63.02;101003.25;5345954;27;20100;-67
2022/04/01 15:38:00;;;;;;;12.18;10.15;;;;;;;4.78;60.88;101003.06;5336842;27;20031;-67
2022/04/01 15:40:34;;;;;;;6.18;5.45;;;;;;;4.98;61.58;101010.00;5324814;27;20024;-68
2022/04/01 15:43:07;;;;;;;13.70;12.07;;;;;;;4.76;60.31;101004.41;5324278;28;20058;-67
2022/04/01 15:45:41;;;;;;;15.77;10.43;;;;;;;4.89;60.52;101014.25;5324854;27;20111;-68
2022/04/01 15:48:13;;;;;;;5.15;4.47;;;;;;;4.74;60.29;101012.88;5326905;27;20036;-68
2022/04/01 15:50:44;;;;;;;9.32;6.78;;;;;;;4.61;59.84;101021.44;5323824;28;20364;-68
2022/04/01 15:53:15;;;;;;;6.15;3.80;;;;;;;4.68;60.04;101018.50;5328346;27;20019;-68
2022/04/01 15:55:48;;;;;;;3.60;3.28;;;;;;;4.73;60.56;101024.97;5324181;28;20051;-68
2022/04/01 15:58:21;;;;;;;4.53;3.25;;;;;;;4.79;60.27;101023.97;5328482;27;20394;-67
2022/04/01 16:00:59;;;;;;;3.85;3.15;;;;;;;4.70;60.44;101036.41;5351153;27;20043;-67
2022/04/01 16:03:36;;;;;;;4.50;3.00;;;;;;;4.69;60.94;101037.50;5324833;28;20027;-67
2022/04/01 16:06:07;;;;;;;4.90;3.25;;;;;;;4.72;61.35;101041.69;5324369;28;20028;-67
2022/04/01 16:08:41;;;;;;;2.85;2.65;;;;;;;4.79;60.78;101050.63;5329912;28;20130;-67
2022/04/01 16:11:13;;;;;;;2.92;2.63;;;;;;;4.69;60.70;101045.75;5323908;28;20023;-67
2022/04/01 16:13:48;;;;;;;8.70;6.18;;;;;;;4.80;61.63;101053.09;5329053;28;20051;-67
2022/04/01 16:16:20;;;;;;;3.35;2.85;;;;;;;4.65;60.90;101055.56;5324500;28;20111;-67
2022/04/01 16:18:51;;;;;;;3.78;2.65;;;;;;;4.61;62.13;101059.88;5327966;27;20114;-67
2022/04/01 16:21:23;;;;;;;3.00;2.50;;;;;;;4.33;62.00;101063.44;5342835;27;20486;-68
2022/04/01 16:23:57;;;;;;;5.75;2.90;;;;;;;4.51;61.93;101057.75;5328755;28;20028;-69
2022/04/01 16:26:28;;;;;;;5.25;2.75;;;;;;;4.56;62.48;101070.78;5331071;27;20098;-69
2022/04/01 16:29:00;;;;;;;2.45;2.25;;;;;;;4.54;62.23;101070.19;5337104;27;20106;-68
2022/04/01 16:31:32;;;;;;;4.43;2.83;;;;;;;4.50;63.53;101075.34;5344250;27;20022;-69
2022/04/01 16:34:04;;;;;;;3.30;2.35;;;;;;;4.49;63.53;101078.31;5327849;27;20034;-68
2022/04/01 16:36:35;;;;;;;2.58;2.33;;;;;;;4.49;64.36;101083.81;5328389;28;20091;-69
2022/04/01 16:39:07;;;;;;;4.00;2.75;;;;;;;4.54;64.81;101081.16;5327490;28;20035;-69
2022/04/01 16:41:38;;;;;;;3.35;2.40;;;;;;;4.55;63.60;101088.31;5328690;28;20454;-69
2022/04/01 16:44:09;;;;;;;4.28;2.80;;;;;;;4.57;63.78;101097.97;5328241;27;20031;-69
2022/04/01 16:46:41;;;;;;;5.95;4.07;;;;;;;4.60;64.81;101099.41;5341542;27;20031;-69
2022/04/01 16:49:12;;;;;;;3.33;2.40;;;;;;;4.50;63.78;101093.69;5344612;27;20027;-69
2022/04/01 16:51:44;;;;;;;3.45;2.30;;;;;;;4.90;68.45;101112.09;5341131;27;20037;-70
2022/04/01 16:54:15;;;;;;;2.95;2.10;;;;;;;4.70;65.97;101096.88;5335993;27;20551;-69
2022/04/01 16:56:46;;;;;;;5.07;2.33;;;;;;;4.38;63.52;101101.16;5330349;27;20043;-69
2022/04/01 16:59:21;;;;;;;4.43;2.25;;;;;;;4.32;63.75;101109.28;5328014;28;20028;-70
2022/04/01 17:01:52;;;;;;;3.35;2.20;;;;;;;4.29;65.28;101107.00;5339783;27;20015;-70
2022/04/01 17:04:24;;;;;;;3.38;2.30;;;;;;;4.12;64.96;101101.44;5352414;27;20022;-70
2022/04/01 17:12:40;;;;;;;4.07;2.67;;;;;;;4.10;65.96;101114.56;5344155;27;20035;-70
2022/04/01 17:15:13;;;;;;;3.97;2.80;;;;;;;4.25;66.04;101116.00;5327536;27;20375;-68
2022/04/01 17:17:45;;;;;;;3.58;2.70;;;;;;;4.29;66.35;101117.16;5327630;28;20043;-70
2022/04/01 17:20:19;;;;;;;4.80;3.17;;;;;;;4.26;66.06;101115.72;5331999;27;20027;-72
2022/04/01 17:22:52;;;;;;;3.05;2.70;;;;;;;4.31;67.14;101112.28;5327542;27;20024;-71
2022/04/01 17:25:23;;;;;;;4.30;3.13;;;;;;;4.22;66.77;101113.69;5335101;27;20028;-70
2022/04/01 17:27:54;;;;;;;6.60;5.60;;;;;;;4.27;67.29;101120.16;5338700;27;20366;-70
